Time;durP1;ratioP1;P1;durP2;ratioP2;P2;SDS_P1;SDS_P2;PMS_P1;PMS_P2;Temp;Humidity;BMP_temperature;BMP_pressure;BME280_temperature;BME280_humidity;BME280_pressure;Samples;Min_cycle;Max_cycle;Signal;HPM_P1;HPM_P2
2022/12/25 00:00:11;;;;;;;;;;;6.50;99.90;;;;;;5078941;28;19947;-76
2022/12/25 00:02:37;;;;;;;;;;;6.50;99.90;;;;;;5086694;28;19904;-77
2022/12/25 00:05:03;;;;;;;;;;;6.30;99.90;;;;;;5086721;28;19919;-76
2022/12/25 00:07:28;;;;;;;;;;;6.30;99.90;;;;;;5089391;28;19914;-76
2022/12/25 00:09:54;;;;;;;;;;;6.20;99.90;;;;;;5089013;28;20329;-76
2022/12/25 00:12:21;;;;;;;;;;;6.10;99.90;;;;;;5091101;28;19915;-76
2022/12/25 00:14:47;;;;;;;;;;;6.00;99.90;;;;;;5091892;28;19943;-77
2022/12/25 00:17:12;;;;;;;;;;;6.00;99.90;;;;;;5077199;28;19916;-76
2022/12/25 00:19:38;;;;;;;;;;;6.50;99.90;;;;;;5093666;28;19904;-76
2022/12/25 00:22:03;;;;;;;;;;;6.00;99.90;;;;;;5094378;28;19914;-77
2022/12/25 00:24:30;;;;;;;;;;;6.00;99.90;;;;;;5092799;28;19904;-76
2022/12/25 00:26:56;;;;;;;;;;;6.00;99.90;;;;;;5090220;28;19914;-76
2022/12/25 00:29:21;;;;;;;;;;;6.00;99.90;;;;;;5090425;28;19948;-77
2022/12/25 00:31:47;;;;;;;;;;;5.90;99.90;;;;;;5090601;28;20382;-75
2022/12/25 00:34:13;;;;;;;;;;;5.90;99.90;;;;;;5086654;28;20413;-77
2022/12/25 00:36:38;;;;;;;;;;;5.90;99.90;;;;;;5085483;28;20004;-76
2022/12/25 00:39:06;;;;;;;;;;;5.90;99.90;;;;;;5083295;28;20007;-75
2022/12/25 00:44:15;;;;;;;;;;;5.80;99.90;;;;;;5088806;28;19915;-77
2022/12/25 00:46:41;;;;;;;;;;;5.80;99.90;;;;;;5085335;28;19904;-76
2022/12/25 00:49:07;;;;;;;;;;;5.70;99.90;;;;;;5082352;28;19934;-76
2022/12/25 00:51:33;;;;;;;;;;;5.70;99.90;;;;;;5082944;28;19904;-76
2022/12/25 00:53:58;;;;;;;;;;;5.70;99.90;;;;;;5082784;28;19938;-76
2022/12/25 00:56:24;;;;;;;;;;;5.70;99.90;;;;;;5085626;28;20483;-76
2022/12/25 00:58:51;;;;;;;;;;;5.60;99.90;;;;;;5067637;28;20267;-78
2022/12/25 01:01:17;;;;;;;;;;;5.60;99.90;;;;;;5083884;28;20562;-78
2022/12/25 01:03:42;;;;;;;;;;;5.60;99.90;;;;;;5083769;28;20197;-76
2022/12/25 01:06:09;;;;;;;;;;;5.50;99.90;;;;;;5082862;28;20158;-77
2022/12/25 01:08:36;;;;;;;;;;;5.50;99.90;;;;;;5083276;28;19927;-76
2022/12/25 01:11:05;;;;;;;;;;;5.50;99.90;;;;;;5082408;28;19908;-75
2022/12/25 01:13:33;;;;;;;;;;;5.50;99.90;;;;;;5083154;28;20124;-76
2022/12/25 01:16:04;;;;;;;;;;;5.40;99.90;;;;;;5084581;28;19912;-75
2022/12/25 01:18:30;;;;;;;;;;;5.40;99.90;;;;;;5083363;28;19912;-76
2022/12/25 01:20:56;;;;;;;;;;;5.50;99.90;;;;;;5088182;28;19953;-76
2022/12/25 01:23:22;;;;;;;;;;;5.40;99.90;;;;;;5083483;28;19904;-77
2022/12/25 01:25:47;;;;;;;;;;;5.40;99.90;;;;;;5083299;28;19904;-76
2022/12/25 01:28:14;;;;;;;;;;;5.50;99.90;;;;;;5083340;28;20487;-76
2022/12/25 01:30:46;;;;;;;;;;;5.60;99.90;;;;;;5083234;28;20554;-76
2022/12/25 01:33:11;;;;;;;;;;;5.60;99.90;;;;;;5083871;28;19939;-76
2022/12/25 01:35:38;;;;;;;;;;;5.70;99.90;;;;;;5085994;28;20688;-77
2022/12/25 01:38:03;;;;;;;;;;;5.70;99.90;;;;;;5071643;28;19961;-77
2022/12/25 01:40:32;;;;;;;;;;;5.70;99.90;;;;;;5091461;28;20059;-76
2022/12/25 01:42:57;;;;;;;;;;;5.70;99.90;;;;;;5093199;28;19908;-77
2022/12/25 01:45:29;;;;;;;;;;;5.70;99.90;;;;;;5091108;28;20224;-77
2022/12/25 01:47:55;;;;;;;;;;;5.70;99.90;;;;;;5104228;28;19907;-77
2022/12/25 01:50:21;;;;;;;;;;;5.70;99.90;;;;;;5106944;28;19925;-77
2022/12/25 01:52:47;;;;;;;;;;;5.70;99.90;;;;;;5107243;28;19904;-79
2022/12/25 01:55:13;;;;;;;;;;;5.70;99.90;;;;;;5104533;28;19908;-77
2022/12/25 01:57:39;;;;;;;;;;;5.70;99.90;;;;;;5100727;28;19961;-77
2022/12/25 02:00:06;;;;;;;;;;;5.60;99.90;;;;;;5098446;28;20034;-77
2022/12/25 02:02:32;;;;;;;;;;;6.10;99.90;;;;;;5095054;28;19947;-76
2022/12/25 02:05:00;;;;;;;;;;;5.50;99.90;;;;;;5099302;28;19904;-76
2022/12/25 02:07:26;;;;;;;;;;;5.50;99.90;;;;;;5079241;28;19904;-76
2022/12/25 02:09:52;;;;;;;;;;;5.40;99.90;;;;;;5095729;28;19943;-78
2022/12/25 02:12:20;;;;;;;;;;;5.30;99.90;;;;;;5095107;28;20370;-77
2022/12/25 02:14:47;;;;;;;;;;;5.20;99.90;;;;;;5094228;28;19920;-77
2022/12/25 02:17:18;;;;;;;;;;;5.20;99.90;;;;;;5092976;28;19916;-77
2022/12/25 02:20:02;;;;;;;;;;;5.10;99.90;;;;;;5093306;28;19930;-77
2022/12/25 02:22:28;;;;;;;;;;;5.10;99.90;;;;;;5094064;28;19939;-77
2022/12/25 02:25:03;;;;;;;;;;;5.10;99.90;;;;;;5072849;28;19935;-77
2022/12/25 02:27:45;;;;;;;;;;;5.10;99.90;;;;;;5074292;28;20162;-76
2022/12/25 02:30:11;;;;;;;;;;;5.20;99.90;;;;;;5073496;28;20373;-77
2022/12/25 02:32:37;;;;;;;;;;;5.20;99.90;;;;;;5095342;28;20007;-78
2022/12/25 02:35:06;;;;;;;;;;;5.30;99.90;;;;;;5092601;28;19939;-76
2022/12/25 02:37:32;;;;;;;;;;;5.30;99.90;;;;;;5075962;28;20399;-76
2022/12/25 02:40:13;;;;;;;;;;;5.40;99.90;;;;;;5090709;28;19970;-77
2022/12/25 03:07:38;;;;;;;;;;;6.00;99.90;;;;;;5086318;28;19984;-76
2022/12/25 03:12:54;;;;;;;;;;;4.90;99.90;;;;;;5090998;28;19964;-76
2022/12/25 03:18:06;;;;;;;;;;;5.20;99.90;;;;;;5093731;28;19951;-76
2022/12/25 03:28:50;;;;;;;;;;;4.90;99.90;;;;;;5096388;28;19922;-76
2022/12/25 03:31:39;;;;;;;;;;;5.10;99.90;;;;;;5094988;28;19932;-76
2022/12/25 04:37:27;;;;;;;;;;;4.90;99.90;;;;;;5022653;28;19971;-77
2022/12/25 04:39:52;;;;;;;;;;;4.80;99.90;;;;;;5021114;28;19913;-76
2022/12/25 04:42:18;;;;;;;;;;;4.70;99.90;;;;;;5023263;28;19920;-76
2022/12/25 04:44:44;;;;;;;;;;;4.70;99.90;;;;;;5022547;28;19909;-75
2022/12/25 04:47:09;;;;;;;;;;;4.70;99.90;;;;;;5024826;28;19905;-77
2022/12/25 04:49:35;;;;;;;;;;;4.60;99.90;;;;;;5026952;28;20268;-76
2022/12/25 04:52:01;;;;;;;;;;;4.40;99.90;;;;;;5026266;28;19918;-75
2022/12/25 04:54:30;;;;;;;;;;;4.40;99.90;;;;;;5041943;28;19917;-78
2022/12/25 04:56:58;;;;;;;;;;;4.30;99.90;;;;;;5050308;28;19951;-76
2022/12/25 04:59:26;;;;;;;;;;;4.30;99.90;;;;;;5066892;28;20435;-76
2022/12/25 05:01:51;;;;;;;;;;;4.20;99.90;;;;;;5069837;28;20332;-76
2022/12/25 05:04:17;;;;;;;;;;;4.20;99.90;;;;;;5076350;28;19963;-76
2022/12/25 05:06:43;;;;;;;;;;;6.50;99.90;;;;;;5073410;28;19932;-76
2022/12/25 05:09:08;;;;;;;;;;;6.40;99.90;;;;;;5073010;28;20007;-75
2022/12/25 05:11:34;;;;;;;;;;;4.70;99.90;;;;;;5054189;28;20002;-76
2022/12/25 05:14:00;;;;;;;;;;;4.50;99.90;;;;;;5072134;28;20444;-77
2022/12/25 05:16:25;;;;;;;;;;;4.60;99.90;;;;;;5078201;28;19909;-76
2022/12/25 05:18:51;;;;;;;;;;;4.70;99.90;;;;;;5075562;28;19988;-76
2022/12/25 05:21:18;;;;;;;;;;;2.60;99.90;;;;;;5076278;28;19919;-78
2022/12/25 05:23:49;;;;;;;;;;;5.20;99.90;;;;;;5094305;28;19996;-76
2022/12/25 05:26:16;;;;;;;;;;;4.80;99.90;;;;;;5079165;28;19987;-75
2022/12/25 05:28:42;;;;;;;;;;;5.30;99.90;;;;;;5079771;28;19904;-76
2022/12/25 05:31:08;;;;;;;;;;;3.10;99.90;;;;;;5094725;28;19910;-76
2022/12/25 05:33:34;;;;;;;;;;;5.00;99.90;;;;;;5096475;28;19908;-76
2022/12/25 05:36:06;;;;;;;;;;;5.90;99.90;;;;;;5075608;28;20259;-76
2022/12/25 05:38:35;;;;;;;;;;;4.40;99.90;;;;;;5094763;28;19904;-75
2022/12/25 05:41:01;;;;;;;;;;;4.70;99.90;;;;;;5074248;28;19966;-76
2022/12/25 05:43:27;;;;;;;;;;;5.30;99.90;;;;;;5093462;28;19903;-76
2022/12/25 05:45:53;;;;;;;;;;;5.00;99.90;;;;;;5092441;28;19947;-78
2022/12/25 05:48:18;;;;;;;;;;;2.50;99.90;;;;;;5094203;28;20317;-75
2022/12/25 05:50:44;;;;;;;;;;;4.60;99.90;;;;;;5091687;28;19908;-76
2022/12/25 05:53:11;;;;;;;;;;;3.30;99.90;;;;;;5093674;28;19904;-75
2022/12/25 05:55:37;;;;;;;;;;;4.50;99.90;;;;;;5090822;28;19912;-76
2022/12/25 05:58:03;;;;;;;;;;;4.40;99.90;;;;;;5073790;28;19961;-76
2022/12/25 06:00:29;;;;;;;;;;;4.30;99.90;;;;;;5092540;28;19907;-76
2022/12/25 06:02:54;;;;;;;;;;;4.60;99.90;;;;;;5089187;28;20330;-76
2022/12/25 06:05:20;;;;;;;;;;;4.10;99.90;;;;;;5092143;28;19912;-76
2022/12/25 06:07:46;;;;;;;;;;;4.00;99.90;;;;;;5092720;28;19904;-76
2022/12/25 06:10:12;;;;;;;;;;;4.00;99.90;;;;;;5094159;28;20287;-75
2022/12/25 06:12:38;;;;;;;;;;;3.80;99.90;;;;;;5093427;28;19919;-76
2022/12/25 06:15:05;;;;;;;;;;;0.80;99.90;;;;;;5093630;28;20321;-76
2022/12/25 06:17:31;;;;;;;;;;;4.10;99.90;;;;;;5092553;28;19923;-76
2022/12/25 06:19:56;;;;;;;;;;;3.80;99.90;;;;;;5091490;28;20010;-76
2022/12/25 06:22:22;;;;;;;;;;;4.40;99.90;;;;;;5091760;28;20010;-75
2022/12/25 06:24:47;;;;;;;;;;;3.80;99.90;;;;;;5094486;28;19926;-79
2022/12/25 06:27:14;;;;;;;;;;;7.00;99.90;;;;;;5098348;28;19944;-78
2022/12/25 06:29:39;;;;;;;;;;;3.60;99.90;;;;;;5099893;28;20114;-77
2022/12/25 06:32:06;;;;;;;;;;;3.60;99.90;;;;;;5100467;28;19904;-78
2022/12/25 06:34:32;;;;;;;;;;;3.90;99.90;;;;;;5092617;28;19935;-77
2022/12/25 06:36:57;;;;;;;;;;;3.50;99.90;;;;;;5094851;28;19904;-75
2022/12/25 06:39:26;;;;;;;;;;;4.10;99.90;;;;;;5094542;28;19931;-76
2022/12/25 06:41:52;;;;;;;;;;;3.60;99.90;;;;;;5096584;28;19934;-76
2022/12/25 06:44:17;;;;;;;;;;;3.00;99.90;;;;;;5074069;28;19908;-76
2022/12/25 06:46:43;;;;;;;;;;;4.00;99.90;;;;;;5092248;28;19939;-75
2022/12/25 06:49:09;;;;;;;;;;;4.40;99.90;;;;;;5093019;28;20193;-77
2022/12/25 06:51:36;;;;;;;;;;;4.00;99.90;;;;;;5093069;28;20205;-76
2022/12/25 06:54:04;;;;;;;;;;;3.90;99.90;;;;;;5072585;28;19908;-76
2022/12/25 06:56:31;;;;;;;;;;;0.60;99.90;;;;;;5097413;28;19919;-76
2022/12/25 06:58:58;;;;;;;;;;;3.80;99.90;;;;;;5092262;28;19910;-76
2022/12/25 07:01:41;;;;;;;;;;;3.80;99.90;;;;;;5093859;28;19954;-76
2022/12/25 07:04:35;;;;;;;;;;;4.10;99.90;;;;;;5095054;28;19904;-76
2022/12/25 07:07:01;;;;;;;;;;;3.80;99.90;;;;;;5095111;28;20004;-77
2022/12/25 07:09:27;;;;;;;;;;;3.60;99.90;;;;;;5095425;28;19911;-76
2022/12/25 07:11:53;;;;;;;;;;;3.70;99.90;;;;;;5090188;28;19968;-77
2022/12/25 07:14:22;;;;;;;;;;;3.60;99.90;;;;;;5095301;28;20432;-75
2022/12/25 07:16:47;;;;;;;;;;;2.30;99.90;;;;;;5090632;28;20990;-76
2022/12/25 07:19:14;;;;;;;;;;;3.80;99.90;;;;;;5090991;28;19908;-76
2022/12/25 07:21:40;;;;;;;;;;;4.00;99.90;;;;;;5092139;28;20210;-77
2022/12/25 07:24:06;;;;;;;;;;;3.90;99.90;;;;;;5092858;28;20389;-76
2022/12/25 07:26:32;;;;;;;;;;;4.00;99.90;;;;;;5092316;28;19904;-76
2022/12/25 07:28:58;;;;;;;;;;;4.20;99.90;;;;;;5092413;28;19904;-76
2022/12/25 07:31:24;;;;;;;;;;;4.30;99.90;;;;;;5089456;28;19904;-75
2022/12/25 07:33:52;;;;;;;;;;;5.00;99.90;;;;;;5091871;28;19915;-75
2022/12/25 07:36:17;;;;;;;;;;;4.60;99.90;;;;;;5070841;28;19904;-76
2022/12/25 07:38:43;;;;;;;;;;;5.40;99.90;;;;;;5094287;28;19980;-76
2022/12/25 07:41:11;;;;;;;;;;;4.60;99.90;;;;;;5093883;28;19979;-76
2022/12/25 07:43:37;;;;;;;;;;;4.60;99.90;;;;;;5092442;28;19969;-77
2022/12/25 07:46:07;;;;;;;;;;;4.60;99.90;;;;;;5089359;28;20123;-76
2022/12/25 07:48:32;;;;;;;;;;;4.60;99.90;;;;;;5093331;28;19976;-76
2022/12/25 07:51:02;;;;;;;;;;;4.70;99.90;;;;;;5095809;28;20351;-76
2022/12/25 07:53:28;;;;;;;;;;;4.60;99.90;;;;;;5096083;28;19904;-77
2022/12/25 07:56:01;;;;;;;;;;;4.50;99.90;;;;;;5094383;28;20270;-77
2022/12/25 07:58:27;;;;;;;;;;;4.40;99.90;;;;;;5091869;28;19991;-76
2022/12/25 08:00:52;;;;;;;;;;;4.40;99.90;;;;;;5091944;28;19910;-76
2022/12/25 08:03:18;;;;;;;;;;;4.40;99.90;;;;;;5090000;28;19967;-76
2022/12/25 08:05:44;;;;;;;;;;;4.50;99.90;;;;;;5088900;28;19904;-77
2022/12/25 08:08:09;;;;;;;;;;;4.40;99.90;;;;;;5089583;28;19998;-76
2022/12/25 08:10:35;;;;;;;;;;;4.40;99.90;;;;;;5089494;28;20033;-76
2022/12/25 08:13:01;;;;;;;;;;;5.00;99.90;;;;;;5071778;28;19908;-77
2022/12/25 08:15:26;;;;;;;;;;;4.40;99.90;;;;;;5073503;28;19916;-76
2022/12/25 08:17:52;;;;;;;;;;;4.50;99.90;;;;;;5090640;28;19922;-76
2022/12/25 08:20:17;;;;;;;;;;;4.70;99.90;;;;;;5092470;28;19923;-77
2022/12/25 08:22:43;;;;;;;;;;;4.70;99.90;;;;;;5077320;28;19908;-76
2022/12/25 08:25:09;;;;;;;;;;;4.80;99.90;;;;;;5091582;28;19915;-76
2022/12/25 08:27:34;;;;;;;;;;;4.90;99.90;;;;;;5091017;28;19908;-76
2022/12/25 08:30:00;;;;;;;;;;;4.90;99.90;;;;;;5093400;28;20524;-76
2022/12/25 08:32:27;;;;;;;;;;;5.00;99.90;;;;;;5091589;28;20002;-77
2022/12/25 08:34:52;;;;;;;;;;;5.20;99.90;;;;;;5089208;28;20477;-76
2022/12/25 08:37:18;;;;;;;;;;;5.30;99.90;;;;;;5095309;28;19911;-76
2022/12/25 08:39:44;;;;;;;;;;;5.10;99.90;;;;;;5095605;28;20425;-75
2022/12/25 08:42:09;;;;;;;;;;;5.20;99.90;;;;;;5090153;28;20399;-76
2022/12/25 08:44:35;;;;;;;;;;;6.00;99.90;;;;;;5091530;28;19908;-76
2022/12/25 08:47:00;;;;;;;;;;;5.50;99.90;;;;;;5093372;28;19965;-76
2022/12/25 08:49:27;;;;;;;;;;;6.20;99.90;;;;;;5074708;28;19912;-76
2022/12/25 08:51:53;;;;;;;;;;;5.70;99.90;;;;;;5093856;28;19907;-76
2022/12/25 08:54:19;;;;;;;;;;;5.80;99.90;;;;;;5096301;28;20542;-75
2022/12/25 08:56:44;;;;;;;;;;;5.80;99.90;;;;;;5093876;28;19915;-76
2022/12/25 08:59:10;;;;;;;;;;;5.80;99.90;;;;;;5095076;28;19904;-76
2022/12/25 09:01:36;;;;;;;;;;;4.20;99.90;;;;;;5080498;28;19911;-77
2022/12/25 09:04:03;;;;;;;;;;;5.70;99.90;;;;;;5077665;28;19927;-77
2022/12/25 09:06:30;;;;;;;;;;;5.90;99.90;;;;;;5099521;28;19958;-75
2022/12/25 09:08:59;;;;;;;;;;;6.00;99.90;;;;;;5099638;28;19900;-77
2022/12/25 09:11:30;;;;;;;;;;;6.20;99.90;;;;;;5095418;28;19908;-77
2022/12/25 09:13:59;;;;;;;;;;;6.00;99.90;;;;;;5097237;28;19914;-76
2022/12/25 09:16:24;;;;;;;;;;;6.10;99.90;;;;;;5096661;28;19914;-76
2022/12/25 09:18:50;;;;;;;;;;;6.20;99.90;;;;;;5096559;28;19955;-77
2022/12/25 09:21:16;;;;;;;;;;;5.10;99.90;;;;;;5098993;28;19908;-76
2022/12/25 09:23:42;;;;;;;;;;;6.20;99.90;;;;;;5095013;28;20102;-77
2022/12/25 09:26:11;;;;;;;;;;;5.40;99.90;;;;;;5095603;28;19904;-76
2022/12/25 09:29:00;;;;;;;;;;;6.30;99.90;;;;;;5081991;28;19900;-76
2022/12/25 09:31:55;;;;;;;;;;;6.40;99.90;;;;;;5101380;28;19908;-76
2022/12/25 09:34:21;;;;;;;;;;;6.40;99.90;;;;;;5104345;28;19919;-75
2022/12/25 09:37:07;;;;;;;;;;;4.40;99.90;;;;;;5100383;28;19900;-78
2022/12/25 09:39:33;;;;;;;;;;;7.10;99.90;;;;;;5081529;28;19986;-76
2022/12/25 09:42:02;;;;;;;;;;;6.80;99.90;;;;;;5099688;28;19900;-77
2022/12/25 09:44:33;;;;;;;;;;;7.20;99.90;;;;;;5100907;28;20464;-76
2022/12/25 09:47:01;;;;;;;;;;;7.40;99.90;;;;;;5101462;28;19900;-76
2022/12/25 09:49:40;;;;;;;;;;;7.30;99.90;;;;;;5102064;28;19930;-76
2022/12/25 09:52:20;;;;;;;;;;;7.10;99.90;;;;;;5100186;28;19912;-76
2022/12/25 09:55:02;;;;;;;;;;;6.90;99.90;;;;;;5097810;28;19908;-76
2022/12/25 09:57:27;;;;;;;;;;;6.80;99.90;;;;;;5096655;28;19904;-76
2022/12/25 09:59:58;;;;;;;;;;;5.90;99.90;;;;;;5102761;28;20464;-80
2022/12/25 10:02:43;;;;;;;;;;;7.00;99.90;;;;;;5098481;28;19908;-76
2022/12/25 10:05:27;;;;;;;;;;;8.20;99.90;;;;;;5099255;28;19963;-76
2022/12/25 10:08:11;;;;;;;;;;;7.30;99.90;;;;;;5098805;28;19900;-76
2022/12/25 10:10:43;;;;;;;;;;;4.60;99.90;;;;;;5100496;28;19911;-78
2022/12/25 10:13:10;;;;;;;;;;;7.10;99.90;;;;;;5100433;28;19971;-75
2022/12/25 10:15:43;;;;;;;;;;;7.40;99.90;;;;;;5103915;28;19912;-77
2022/12/25 10:18:15;;;;;;;;;;;7.50;99.90;;;;;;5103283;28;19900;-76
2022/12/25 10:20:57;;;;;;;;;;;7.10;99.90;;;;;;5100453;28;19939;-76
2022/12/25 10:23:26;;;;;;;;;;;7.10;99.90;;;;;;5101870;28;19904;-77
2022/12/25 10:25:54;;;;;;;;;;;7.20;99.90;;;;;;5102955;28;19908;-76
2022/12/25 10:28:41;;;;;;;;;;;7.30;99.90;;;;;;5084994;28;19939;-76
2022/12/25 10:31:16;;;;;;;;;;;7.30;99.90;;;;;;5100615;28;19903;-76
2022/12/25 10:33:42;;;;;;;;;;;7.40;99.90;;;;;;5081783;28;19953;-75
2022/12/25 10:36:08;;;;;;;;;;;7.40;99.90;;;;;;5099761;28;19908;-77
2022/12/25 10:38:38;;;;;;;;;;;8.00;99.90;;;;;;5081036;28;19946;-76
2022/12/25 10:41:22;;;;;;;;;;;7.00;99.90;;;;;;5094663;28;19904;-76
2022/12/25 10:43:49;;;;;;;;;;;7.60;99.90;;;;;;5088666;28;19908;-76
2022/12/25 10:46:18;;;;;;;;;;;7.80;99.90;;;;;;5096516;28;19908;-76
2022/12/25 10:48:52;;;;;;;;;;;7.20;99.90;;;;;;5095678;28;19900;-75
2022/12/25 10:51:38;;;;;;;;;;;7.90;99.90;;;;;;5078940;28;19908;-76
2022/12/25 10:54:25;;;;;;;;;;;7.40;99.90;;;;;;5096999;28;19951;-76
2022/12/25 10:57:20;;;;;;;;;;;7.70;99.90;;;;;;5076532;28;19975;-76
2022/12/25 11:00:00;;;;;;;;;;;6.20;99.90;;;;;;5016213;28;19906;-76
2022/12/25 11:02:34;;;;;;;;;;;7.70;99.90;;;;;;4997123;28;19916;-76
2022/12/25 11:05:23;;;;;;;;;;;7.90;99.90;;;;;;5014354;28;19971;-76
2022/12/25 11:07:54;;;;;;;;;;;7.80;99.90;;;;;;5012924;28;19969;-75
2022/12/25 11:10:22;;;;;;;;;;;7.90;99.90;;;;;;5012790;28;20084;-76
2022/12/25 11:12:48;;;;;;;;;;;7.90;99.90;;;;;;5013479;28;19905;-75
2022/12/25 11:15:37;;;;;;;;;;;8.00;99.90;;;;;;5015262;28;20067;-76
2022/12/25 11:18:16;;;;;;;;;;;8.10;99.90;;;;;;4975463;28;19921;-79
2022/12/25 11:21:02;;;;;;;;;;;9.80;99.90;;;;;;4967657;28;19953;-78
2022/12/25 11:23:29;;;;;;;;;;;5.50;99.90;;;;;;4977160;28;20565;-76
2022/12/25 11:26:06;;;;;;;;;;;8.00;99.90;;;;;;4976049;28;19906;-75
2022/12/25 11:28:36;;;;;;;;;;;7.70;99.90;;;;;;4980033;28;19906;-76
2022/12/25 11:31:23;;;;;;;;;;;7.70;99.90;;;;;;4975953;28;19902;-77
2022/12/25 11:34:01;;;;;;;;;;;7.70;99.90;;;;;;4968516;28;19917;-78
2022/12/25 11:36:45;;;;;;;;;;;7.80;99.90;;;;;;5001003;28;19912;-76
2022/12/25 11:39:27;;;;;;;;;;;7.80;99.90;;;;;;5032342;28;19917;-76
2022/12/25 11:41:57;;;;;;;;;;;7.90;99.90;;;;;;5028290;28;20445;-76
2022/12/25 11:44:33;;;;;;;;;;;7.90;99.90;;;;;;5028946;28;19905;-75
2022/12/25 11:47:11;;;;;;;;;;;7.80;99.90;;;;;;5038895;28;19905;-75
2022/12/25 11:49:41;;;;;;;;;;;7.90;99.90;;;;;;5049440;28;20645;-78
2022/12/25 11:52:11;;;;;;;;;;;7.80;99.90;;;;;;5020722;28;20410;-76
2022/12/25 11:54:47;;;;;;;;;;;7.80;99.90;;;;;;5048456;28;19908;-76
2022/12/25 11:57:13;;;;;;;;;;;7.80;99.90;;;;;;5076554;28;19940;-76
2022/12/25 12:00:06;;;;;;;;;;;8.10;99.90;;;;;;5079124;28;19908;-76
2022/12/25 12:02:35;;;;;;;;;;;7.90;99.90;;;;;;5058249;28;19943;-75
2022/12/25 12:05:07;;;;;;;;;;;8.00;99.90;;;;;;5079878;28;19908;-75
2022/12/25 12:07:42;;;;;;;;;;;7.90;99.90;;;;;;5080737;28;19936;-76
2022/12/25 12:10:20;;;;;;;;;;;7.80;99.90;;;;;;5071889;28;19939;-76
2022/12/25 12:12:53;;;;;;;;;;;7.70;99.90;;;;;;5066262;28;19912;-76
2022/12/25 12:15:37;;;;;;;;;;;8.20;99.90;;;;;;5067296;28;19912;-76
2022/12/25 12:18:09;;;;;;;;;;;8.10;99.90;;;;;;5081201;28;19919;-75
2022/12/25 12:20:35;;;;;;;;;;;9.90;99.90;;;;;;5087153;28;19939;-76
2022/12/25 12:23:06;;;;;;;;;;;7.90;99.90;;;;;;5088951;28;20526;-76
2022/12/25 12:25:37;;;;;;;;;;;7.90;99.90;;;;;;5091663;28;19907;-76
2022/12/25 12:28:02;;;;;;;;;;;7.80;99.90;;;;;;5094838;28;19930;-76
2022/12/25 12:30:30;;;;;;;;;;;7.70;99.90;;;;;;5098352;28;19900;-76
2022/12/25 12:33:01;;;;;;;;;;;7.70;99.90;;;;;;5101941;28;19908;-77
2022/12/25 12:35:31;;;;;;;;;;;7.70;99.90;;;;;;5095687;28;19908;-76
2022/12/25 12:37:59;;;;;;;;;;;7.70;99.90;;;;;;5096381;28;20522;-76
2022/12/25 12:40:42;;;;;;;;;;;7.10;99.90;;;;;;5098575;28;19908;-77
2022/12/25 12:43:25;;;;;;;;;;;7.60;99.90;;;;;;5096835;28;19908;-77
2022/12/25 12:45:55;;;;;;;;;;;7.60;99.90;;;;;;5099448;28;19911;-76
2022/12/25 12:48:25;;;;;;;;;;;7.70;99.90;;;;;;5099408;28;20412;-76
2022/12/25 12:51:01;;;;;;;;;;;7.60;99.90;;;;;;5094147;28;19900;-75
2022/12/25 12:53:31;;;;;;;;;;;7.80;99.90;;;;;;5076175;28;19904;-75
2022/12/25 12:56:27;;;;;;;;;;;7.70;99.90;;;;;;5098996;28;20484;-75
2022/12/25 12:58:53;;;;;;;;;;;7.60;99.90;;;;;;5011611;28;19909;-76
2022/12/25 13:01:30;;;;;;;;;;;7.60;99.90;;;;;;5010332;28;19905;-75
2022/12/25 13:04:08;;;;;;;;;;;7.70;99.90;;;;;;5011891;28;19905;-75
2022/12/25 13:06:39;;;;;;;;;;;7.60;99.90;;;;;;5013097;28;19906;-78
2022/12/25 13:09:32;;;;;;;;;;;7.50;99.90;;;;;;5009541;28;20114;-75
2022/12/25 13:11:58;;;;;;;;;;;7.60;99.90;;;;;;5007793;28;20396;-76
2022/12/25 13:14:28;;;;;;;;;;;7.80;99.90;;;;;;5007326;28;19917;-76
2022/12/25 13:16:54;;;;;;;;;;;7.60;99.90;;;;;;5009447;28;19953;-75
2022/12/25 13:19:22;;;;;;;;;;;7.50;99.90;;;;;;5009393;28;19910;-76
2022/12/25 13:21:55;;;;;;;;;;;7.60;99.90;;;;;;4994504;28;19911;-76
2022/12/25 13:24:22;;;;;;;;;;;7.70;99.90;;;;;;5011583;28;19902;-75
2022/12/25 13:26:47;;;;;;;;;;;8.60;99.90;;;;;;5007924;28;19905;-76
2022/12/25 13:29:22;;;;;;;;;;;7.60;99.90;;;;;;5015591;28;19906;-75
2022/12/25 13:31:53;;;;;;;;;;;6.00;99.90;;;;;;5016731;28;19906;-83
2022/12/25 13:34:39;;;;;;;;;;;7.50;99.90;;;;;;5021675;28;19952;-76
2022/12/25 13:37:06;;;;;;;;;;;7.40;99.90;;;;;;5087991;28;20432;-75
2022/12/25 13:39:33;;;;;;;;;;;7.80;99.90;;;;;;5090552;28;19900;-75
2022/12/25 13:42:04;;;;;;;;;;;7.40;99.90;;;;;;5088717;28;19939;-75
2022/12/25 13:44:39;;;;;;;;;;;7.40;99.90;;;;;;5091402;28;19919;-75
2022/12/25 13:47:20;;;;;;;;;;;10.70;99.90;;;;;;5072425;28;20010;-75
2022/12/25 13:49:48;;;;;;;;;;;7.50;99.90;;;;;;5089465;28;19966;-75
2022/12/25 13:52:15;;;;;;;;;;;7.60;99.90;;;;;;5090491;28;19926;-76
2022/12/25 13:54:54;;;;;;;;;;;7.50;99.90;;;;;;5088997;28;19915;-75
2022/12/25 13:57:20;;;;;;;;;;;6.10;99.90;;;;;;5094724;28;19904;-76
2022/12/25 13:59:46;;;;;;;;;;;7.70;99.90;;;;;;5098964;28;19904;-74
2022/12/25 14:02:18;;;;;;;;;;;7.20;99.90;;;;;;5100416;28;20522;-83
2022/12/25 14:04:44;;;;;;;;;;;7.90;99.90;;;;;;5092643;28;19912;-75
2022/12/25 14:07:10;;;;;;;;;;;6.10;99.90;;;;;;5087830;28;19965;-80
2022/12/25 14:09:56;;;;;;;;;;;7.60;99.90;;;;;;5090921;28;19934;-76
2022/12/25 14:12:24;;;;;;;;;;;7.50;99.90;;;;;;5095203;28;19908;-77
2022/12/25 14:14:51;;;;;;;;;;;7.90;99.90;;;;;;5091485;28;19915;-76
2022/12/25 14:17:17;;;;;;;;;;;7.90;99.90;;;;;;5089762;28;19955;-76
2022/12/25 14:19:43;;;;;;;;;;;7.80;99.90;;;;;;5091430;28;19926;-76
2022/12/25 14:22:20;;;;;;;;;;;7.80;99.90;;;;;;5097383;28;19911;-75
2022/12/25 14:24:46;;;;;;;;;;;4.80;99.90;;;;;;5075484;28;19918;-76
2022/12/25 14:27:35;;;;;;;;;;;7.60;99.90;;;;;;5095700;28;20077;-77
2022/12/25 14:30:03;;;;;;;;;;;8.00;99.90;;;;;;5096618;28;20537;-76
2022/12/25 14:32:30;;;;;;;;;;;5.00;99.90;;;;;;5097927;28;19908;-75
2022/12/25 14:34:58;;;;;;;;;;;7.50;99.90;;;;;;5083096;28;19916;-75
2022/12/25 14:37:28;;;;;;;;;;;7.50;99.90;;;;;;5095249;28;19904;-75
2022/12/25 14:40:13;;;;;;;;;;;7.60;99.90;;;;;;5096171;28;19946;-75
2022/12/25 14:42:39;;;;;;;;;;;7.60;99.90;;;;;;5088890;28;19999;-76
2022/12/25 14:45:26;;;;;;;;;;;7.60;99.90;;;;;;5101040;28;19908;-75
2022/12/25 14:47:54;;;;;;;;;;;7.50;99.90;;;;;;5101272;28;19900;-76
2022/12/25 14:50:36;;;;;;;;;;;7.80;99.90;;;;;;5081189;28;19929;-75
2022/12/25 14:53:01;;;;;;;;;;;7.30;99.90;;;;;;5095138;28;19904;-75
2022/12/25 14:55:28;;;;;;;;;;;7.30;99.90;;;;;;5101581;28;19926;-75
2022/12/25 14:57:59;;;;;;;;;;;5.30;99.90;;;;;;5103753;28;19900;-75
2022/12/25 15:00:34;;;;;;;;;;;7.20;99.90;;;;;;5103402;28;20005;-76
2022/12/25 15:03:00;;;;;;;;;;;5.30;99.90;;;;;;5103416;28;19911;-76
2022/12/25 15:05:39;;;;;;;;;;;7.20;99.90;;;;;;5084777;28;19943;-76
2022/12/25 15:08:17;;;;;;;;;;;7.10;99.90;;;;;;5102808;28;19947;-76
2022/12/25 15:10:43;;;;;;;;;;;7.20;99.90;;;;;;5096816;28;19908;-76
2022/12/25 15:13:17;;;;;;;;;;;4.30;99.90;;;;;;5097737;28;20278;-75
2022/12/25 15:15:56;;;;;;;;;;;7.10;99.90;;;;;;5094308;28;20002;-75
2022/12/25 15:18:22;;;;;;;;;;;7.10;99.90;;;;;;5090668;28;19915;-75
2022/12/25 15:20:51;;;;;;;;;;;7.00;99.90;;;;;;5089016;28;19900;-75
2022/12/25 15:23:17;;;;;;;;;;;7.00;99.90;;;;;;5092243;28;19900;-75
2022/12/25 15:25:43;;;;;;;;;;;7.00;99.90;;;;;;5093604;28;19915;-76
2022/12/25 15:28:10;;;;;;;;;;;7.10;99.90;;;;;;5092413;28;19904;-76
2022/12/25 15:30:38;;;;;;;;;;;7.00;99.90;;;;;;5071002;28;20439;-76
2022/12/25 15:33:11;;;;;;;;;;;6.30;99.90;;;;;;5092229;28;19919;-77
2022/12/25 15:35:37;;;;;;;;;;;7.00;99.90;;;;;;5089143;28;19919;-77
2022/12/25 15:38:03;;;;;;;;;;;7.10;99.90;;;;;;5090303;28;20041;-76
2022/12/25 15:40:29;;;;;;;;;;;7.10;99.90;;;;;;5094167;28;19958;-76
2022/12/25 15:42:55;;;;;;;;;;;7.30;99.90;;;;;;5095223;28;20085;-77
2022/12/25 15:45:25;;;;;;;;;;;3.60;99.90;;;;;;5093266;28;19927;-75
2022/12/25 15:47:51;;;;;;;;;;;4.30;99.90;;;;;;5092508;28;20619;-75
2022/12/25 15:50:17;;;;;;;;;;;7.40;99.90;;;;;;5092234;28;19912;-75
2022/12/25 15:52:43;;;;;;;;;;;7.70;99.90;;;;;;5093734;28;19904;-76
2022/12/25 15:55:12;;;;;;;;;;;7.30;99.90;;;;;;5101537;28;20007;-75
2022/12/25 15:57:39;;;;;;;;;;;3.90;99.90;;;;;;5097000;28;19953;-75
2022/12/25 16:00:05;;;;;;;;;;;7.10;99.90;;;;;;5097370;28;19904;-76
2022/12/25 16:02:31;;;;;;;;;;;7.30;99.90;;;;;;5088288;28;19904;-75
2022/12/25 16:04:57;;;;;;;;;;;4.70;99.90;;;;;;5091430;28;19943;-75
2022/12/25 16:07:23;;;;;;;;;;;7.60;99.90;;;;;;5090170;28;19911;-75
2022/12/25 16:09:49;;;;;;;;;;;7.00;99.90;;;;;;5093411;28;19904;-75
2022/12/25 16:12:16;;;;;;;;;;;7.10;99.90;;;;;;5078624;28;19968;-76
2022/12/25 16:14:43;;;;;;;;;;;7.10;99.90;;;;;;5102397;28;19912;-75
2022/12/25 16:17:12;;;;;;;;;;;4.10;99.90;;;;;;5094435;28;19919;-76
2022/12/25 16:19:38;;;;;;;;;;;7.30;99.90;;;;;;5074168;28;19908;-75
2022/12/25 16:22:11;;;;;;;;;;;7.10;99.90;;;;;;5093065;28;19900;-75
2022/12/25 16:24:39;;;;;;;;;;;7.30;99.90;;;;;;5094478;28;19919;-78
2022/12/25 16:27:05;;;;;;;;;;;6.90;99.90;;;;;;5094058;28;19985;-75
2022/12/25 16:29:31;;;;;;;;;;;7.20;99.90;;;;;;5099696;28;19904;-75